createdAt,value
2023-01-29T00:01:48.129Z,5.61
2023-01-29T00:04:14.659Z,5.63
2023-01-29T00:06:41.046Z,5.63
2023-01-29T00:09:07.512Z,5.65
2023-01-29T00:11:35.125Z,5.63
2023-01-29T00:14:01.675Z,5.61
2023-01-29T00:16:28.288Z,5.57
2023-01-29T00:18:54.969Z,5.57
2023-01-29T00:21:22.291Z,5.55
2023-01-29T00:23:49.238Z,5.55
2023-01-29T00:26:16.145Z,5.57
2023-01-29T00:28:42.684Z,5.54
2023-01-29T00:31:09.200Z,5.53
2023-01-29T00:33:35.777Z,5.54
2023-01-29T00:36:12.904Z,5.51
2023-01-29T00:38:39.374Z,5.48
2023-01-29T00:41:28.699Z,5.49
2023-01-29T00:44:13.613Z,5.47
2023-01-29T00:46:40.259Z,5.50
2023-01-29T00:49:07.152Z,5.50
2023-01-29T00:51:33.611Z,5.50
2023-01-29T00:54:00.144Z,5.52
2023-01-29T00:56:27.603Z,5.50
2023-01-29T00:58:53.993Z,5.51
2023-01-29T01:01:41.203Z,5.48
2023-01-29T01:04:08.564Z,5.52
2023-01-29T01:06:37.449Z,5.50
2023-01-29T01:09:23.034Z,5.51
2023-01-29T01:11:49.449Z,5.48
2023-01-29T01:14:15.850Z,5.47
2023-01-29T01:16:42.252Z,5.51
2023-01-29T01:19:08.708Z,5.47
2023-01-29T01:21:35.066Z,5.47
2023-01-29T01:24:01.880Z,5.48
2023-01-29T01:26:28.783Z,5.47
2023-01-29T01:28:55.408Z,5.48
2023-01-29T01:31:21.922Z,5.51
2023-01-29T01:33:49.158Z,5.55
2023-01-29T01:36:15.822Z,5.54
2023-01-29T01:38:45.171Z,5.58
2023-01-29T01:41:13.144Z,5.62
2023-01-29T01:43:51.968Z,5.60
2023-01-29T01:46:18.836Z,5.65
2023-01-29T01:48:46.981Z,5.66
2023-01-29T01:51:13.674Z,5.64
2023-01-29T01:53:42.011Z,5.62
2023-01-29T01:56:10.969Z,5.64
2023-01-29T01:58:40.652Z,5.63
2023-01-29T02:01:08.201Z,5.61
2023-01-29T02:04:06.223Z,5.65
2023-01-29T02:06:52.183Z,5.66
2023-01-29T02:09:38.770Z,5.66
2023-01-29T02:12:07.159Z,5.65
2023-01-29T02:14:34.511Z,5.64
2023-01-29T02:17:01.733Z,5.67
2023-01-29T02:19:41.999Z,5.67
2023-01-29T02:22:29.177Z,5.69
2023-01-29T02:25:14.417Z,5.66
2023-01-29T02:27:56.238Z,5.67
2023-01-29T02:30:33.596Z,5.66
2023-01-29T02:33:21.372Z,5.66
2023-01-29T02:35:56.492Z,5.66
2023-01-29T02:38:27.308Z,5.62
2023-01-29T02:40:56.949Z,5.58
2023-01-29T02:43:42.259Z,5.60
2023-01-29T02:46:11.740Z,5.56
2023-01-29T02:48:53.996Z,5.55
2023-01-29T02:51:25.081Z,5.57
2023-01-29T02:53:58.048Z,5.56
2023-01-29T02:56:28.809Z,5.55
2023-01-29T02:59:00.404Z,5.56
2023-01-29T03:01:30.328Z,5.56
2023-01-29T03:03:59.228Z,5.51
2023-01-29T03:06:30.082Z,5.54
2023-01-29T03:08:58.954Z,5.51
2023-01-29T03:11:27.853Z,5.53
2023-01-29T03:13:59.885Z,5.52
2023-01-29T03:16:36.771Z,5.54
2023-01-29T03:19:06.156Z,5.53
2023-01-29T03:21:52.717Z,5.55
2023-01-29T03:24:40.034Z,5.51
2023-01-29T03:27:27.740Z,5.54
2023-01-29T03:30:14.437Z,5.50
2023-01-29T03:32:42.829Z,5.45
2023-01-29T03:35:10.606Z,5.46
2023-01-29T03:37:41.381Z,5.40
2023-01-29T03:40:08.408Z,5.41
2023-01-29T03:42:37.478Z,5.42
2023-01-29T03:45:03.798Z,5.37
2023-01-29T03:47:42.086Z,5.36
2023-01-29T03:50:28.559Z,5.30
2023-01-29T03:53:17.101Z,5.30
2023-01-29T03:55:48.725Z,5.29
2023-01-29T03:58:25.473Z,5.25
2023-01-29T04:00:54.416Z,5.20
2023-01-29T04:03:22.932Z,5.21
2023-01-29T04:05:53.025Z,5.18
2023-01-29T04:08:27.524Z,5.18
2023-01-29T04:10:56.544Z,5.21
2023-01-29T04:13:24.065Z,5.23
2023-01-29T04:15:53.332Z,5.23
2023-01-29T04:18:19.683Z,5.28
2023-01-29T04:20:46.647Z,5.25
2023-01-29T04:23:23.236Z,5.31
2023-01-29T04:26:07.964Z,5.30
2023-01-29T04:28:53.486Z,5.31
2023-01-29T04:31:23.055Z,5.37
2023-01-29T04:34:04.426Z,5.36
2023-01-29T04:36:35.463Z,5.37
2023-01-29T04:39:01.805Z,5.40
2023-01-29T04:41:37.449Z,5.39
2023-01-29T04:44:08.509Z,5.39
2023-01-29T04:46:43.853Z,5.42
2023-01-29T04:49:17.841Z,5.44
2023-01-29T04:52:02.432Z,5.38
2023-01-29T04:54:37.216Z,5.35
2023-01-29T04:57:13.766Z,5.38
2023-01-29T04:59:42.623Z,5.40
2023-01-29T05:02:10.495Z,5.41
2023-01-29T05:04:38.691Z,5.41
2023-01-29T05:07:07.016Z,5.40
2023-01-29T05:09:35.286Z,5.47
2023-01-29T05:12:02.618Z,5.46
2023-01-29T05:14:30.918Z,5.45
2023-01-29T05:17:00.401Z,5.43
2023-01-29T05:19:27.034Z,5.44
2023-01-29T05:21:53.591Z,5.42
2023-01-29T05:24:22.085Z,5.47
2023-01-29T05:27:08.510Z,5.43
2023-01-29T05:29:35.092Z,5.45
2023-01-29T05:32:01.592Z,5.46
2023-01-29T05:34:28.042Z,5.39
2023-01-29T05:36:54.480Z,5.43
2023-01-29T05:39:21.016Z,5.40
2023-01-29T05:41:47.373Z,5.43
2023-01-29T05:44:13.744Z,5.44
2023-01-29T05:46:40.248Z,5.44
2023-01-29T05:49:06.682Z,5.40
2023-01-29T05:51:33.200Z,5.37
2023-01-29T05:53:59.529Z,5.30
2023-01-29T05:56:25.916Z,5.31
2023-01-29T05:58:52.307Z,5.27
2023-01-29T06:01:19.793Z,5.26
2023-01-29T06:03:46.461Z,5.27
2023-01-29T06:06:13.329Z,5.22
2023-01-29T06:08:39.709Z,5.17
2023-01-29T06:11:10.628Z,5.20
2023-01-29T06:13:37.082Z,5.17
2023-01-29T06:16:04.881Z,5.07
2023-01-29T06:18:31.232Z,5.11
2023-01-29T06:21:00.172Z,5.13
2023-01-29T06:23:26.539Z,5.11
2023-01-29T06:25:52.876Z,5.08
2023-01-29T06:28:19.280Z,5.14
2023-01-29T06:30:45.671Z,5.12
2023-01-29T06:33:12.026Z,5.12
2023-01-29T06:35:38.350Z,5.08
2023-01-29T06:38:04.802Z,5.09
2023-01-29T06:40:31.229Z,5.12
2023-01-29T06:42:58.429Z,5.15
2023-01-29T06:45:25.175Z,5.14
2023-01-29T06:47:51.606Z,4.94
2023-01-29T06:50:18.347Z,5.06
2023-01-29T06:52:44.873Z,5.07
2023-01-29T06:55:11.223Z,5.09
2023-01-29T06:57:37.604Z,5.02
2023-01-29T07:00:04.391Z,5.00
2023-01-29T07:02:30.746Z,5.02
2023-01-29T07:04:57.077Z,5.02
2023-01-29T07:07:23.471Z,5.01
2023-01-29T07:09:49.844Z,5.03
2023-01-29T07:12:16.186Z,5.00
2023-01-29T07:14:42.588Z,5.01
2023-01-29T07:17:08.919Z,5.02
2023-01-29T07:19:35.239Z,4.99
2023-01-29T07:22:03.208Z,4.93
2023-01-29T07:24:29.730Z,4.94
2023-01-29T07:26:56.812Z,4.87
2023-01-29T07:29:23.150Z,4.97
2023-01-29T07:31:49.748Z,5.00
2023-01-29T07:34:16.114Z,4.94
2023-01-29T07:36:42.474Z,5.01
2023-01-29T07:39:08.837Z,5.01
2023-01-29T07:41:35.385Z,5.03
2023-01-29T07:44:01.736Z,5.00
2023-01-29T07:46:28.134Z,4.99
2023-01-29T07:48:54.593Z,5.06
2023-01-29T07:51:21.386Z,5.08
2023-01-29T07:53:47.821Z,5.13
2023-01-29T07:56:14.291Z,5.11
2023-01-29T07:58:40.722Z,5.12
2023-01-29T08:01:07.854Z,5.12
2023-01-29T08:03:34.584Z,5.17
2023-01-29T08:06:01.070Z,5.20
2023-01-29T08:08:27.490Z,5.21
2023-01-29T08:10:53.791Z,5.17
2023-01-29T08:13:20.195Z,5.22
2023-01-29T08:15:46.727Z,5.21
2023-01-29T08:18:13.823Z,5.19
2023-01-29T08:20:40.205Z,5.22
2023-01-29T08:23:07.764Z,5.22
2023-01-29T08:25:35.272Z,5.29
2023-01-29T08:28:01.680Z,5.33
2023-01-29T08:30:29.360Z,5.29
2023-01-29T08:32:55.730Z,5.31
2023-01-29T08:35:22.120Z,5.26
2023-01-29T08:37:59.443Z,5.32
2023-01-29T08:40:26.612Z,5.39
2023-01-29T08:42:52.977Z,5.28
2023-01-29T08:45:19.552Z,5.35
2023-01-29T08:47:46.975Z,5.37
2023-01-29T08:50:13.464Z,5.35
2023-01-29T08:52:39.780Z,5.39
2023-01-29T08:55:06.368Z,5.47
2023-01-29T08:57:33.494Z,5.58
2023-01-29T09:00:00.046Z,5.59
2023-01-29T09:02:26.421Z,5.60
2023-01-29T09:04:52.782Z,5.61
2023-01-29T09:07:21.641Z,5.67
2023-01-29T09:09:48.019Z,5.84
2023-01-29T09:12:14.446Z,5.82
2023-01-29T09:14:40.811Z,5.81
2023-01-29T09:17:07.199Z,5.69
2023-01-29T09:19:33.586Z,5.75
2023-01-29T09:21:59.925Z,5.79
2023-01-29T09:24:26.310Z,5.68
2023-01-29T09:26:52.648Z,5.73
2023-01-29T09:29:19.042Z,5.71
2023-01-29T09:31:45.535Z,5.72
2023-01-29T09:34:11.955Z,5.77
2023-01-29T09:36:38.343Z,5.84
2023-01-29T09:39:04.826Z,5.83
2023-01-29T09:41:46.137Z,5.81
2023-01-29T09:44:20.247Z,5.83
2023-01-29T09:46:47.602Z,5.87
2023-01-29T09:49:18.751Z,5.90
2023-01-29T09:51:49.245Z,6.02
2023-01-29T09:54:22.993Z,5.97
2023-01-29T09:56:51.029Z,5.92
2023-01-29T09:59:18.883Z,5.88
2023-01-29T10:01:57.622Z,5.95
2023-01-29T10:04:34.245Z,5.96
2023-01-29T10:07:20.914Z,5.96
2023-01-29T10:09:53.256Z,5.89
2023-01-29T10:12:19.691Z,5.99
2023-01-29T10:14:51.888Z,5.96
2023-01-29T10:17:21.029Z,5.94
2023-01-29T10:19:56.773Z,6.05
2023-01-29T10:22:29.112Z,6.09
2023-01-29T10:25:02.472Z,6.26
2023-01-29T10:27:32.500Z,6.18
2023-01-29T10:30:00.519Z,6.13
2023-01-29T10:32:27.845Z,6.14
2023-01-29T10:35:03.001Z,6.04
2023-01-29T10:37:42.052Z,6.03
2023-01-29T10:40:37.027Z,6.09
2023-01-29T10:43:10.157Z,6.07
2023-01-29T10:45:43.721Z,6.03
2023-01-29T10:48:23.975Z,6.02
2023-01-29T10:51:09.159Z,6.01
2023-01-29T10:53:42.146Z,6.03
2023-01-29T10:56:21.841Z,5.95
2023-01-29T10:58:51.921Z,5.90
2023-01-29T11:01:18.330Z,5.94
2023-01-29T11:03:44.859Z,6.00
2023-01-29T11:06:15.102Z,5.98
2023-01-29T11:08:55.027Z,6.06
2023-01-29T11:11:22.414Z,6.02
2023-01-29T11:13:52.911Z,6.11
2023-01-29T11:16:19.264Z,6.09
2023-01-29T11:18:59.736Z,6.21
2023-01-29T11:21:27.687Z,6.24
2023-01-29T11:24:07.834Z,6.21
2023-01-29T11:26:39.479Z,6.10
2023-01-29T11:29:25.807Z,6.19
2023-01-29T11:31:53.079Z,6.12
2023-01-29T11:34:20.878Z,6.15
2023-01-29T11:36:56.237Z,6.17
2023-01-29T11:39:23.582Z,6.18
2023-01-29T11:41:53.045Z,6.17
2023-01-29T11:44:38.718Z,6.16
2023-01-29T11:47:14.370Z,6.12
2023-01-29T11:49:44.766Z,6.10
2023-01-29T11:52:11.818Z,6.04
2023-01-29T11:54:40.900Z,6.12
2023-01-29T11:57:20.140Z,6.05
2023-01-29T11:59:50.073Z,5.97
2023-01-29T12:02:20.582Z,5.95
2023-01-29T12:04:47.583Z,5.99
2023-01-29T12:07:15.834Z,5.98
2023-01-29T12:09:48.947Z,6.04
2023-01-29T12:12:37.339Z,6.00
2023-01-29T12:15:05.158Z,6.02
2023-01-29T12:17:33.470Z,5.98
2023-01-29T12:20:03.801Z,5.94
2023-01-29T12:22:48.678Z,5.96
2023-01-29T12:25:33.543Z,6.05
2023-01-29T12:27:59.920Z,6.06
2023-01-29T12:30:32.217Z,5.89
2023-01-29T12:33:24.660Z,5.99
2023-01-29T12:35:54.894Z,6.02
2023-01-29T12:38:22.067Z,5.97
2023-01-29T12:41:11.429Z,5.87
2023-01-29T12:43:37.725Z,5.82
2023-01-29T12:46:06.455Z,5.81
2023-01-29T12:48:34.624Z,5.76
2023-01-29T12:51:06.486Z,5.77
2023-01-29T12:53:37.225Z,5.75
2023-01-29T12:56:11.147Z,5.79
2023-01-29T12:58:41.420Z,5.78
2023-01-29T13:01:14.011Z,5.78
2023-01-29T13:04:02.550Z,5.72
2023-01-29T13:06:31.777Z,5.69
2023-01-29T13:09:00.371Z,5.64
2023-01-29T13:11:42.084Z,5.63
2023-01-29T13:14:08.447Z,5.65
2023-01-29T13:16:38.246Z,5.66
2023-01-29T13:19:06.450Z,5.62
2023-01-29T13:21:42.003Z,5.60
2023-01-29T13:24:16.253Z,5.53
2023-01-29T13:26:46.184Z,5.65
2023-01-29T13:29:23.281Z,5.68
2023-01-29T13:31:50.875Z,5.70
2023-01-29T13:34:25.245Z,5.66
2023-01-29T13:36:52.987Z,5.83
2023-01-29T13:39:22.517Z,5.83
2023-01-29T13:41:49.905Z,5.88
2023-01-29T13:44:31.625Z,6.08
2023-01-29T13:46:57.968Z,6.03
2023-01-29T13:49:26.787Z,6.14
2023-01-29T13:51:53.938Z,6.19
2023-01-29T13:54:23.463Z,6.20
2023-01-29T13:56:55.817Z,6.14
2023-01-29T13:59:24.857Z,6.16
2023-01-29T14:01:51.181Z,6.20
2023-01-29T14:04:28.271Z,6.21
2023-01-29T14:06:55.633Z,6.26
2023-01-29T14:09:37.196Z,6.29
2023-01-29T14:12:04.369Z,6.33
2023-01-29T14:14:49.340Z,6.32
2023-01-29T14:17:17.267Z,6.33
2023-01-29T14:19:47.300Z,6.30
2023-01-29T14:22:21.724Z,6.27
2023-01-29T14:24:48.772Z,6.33
2023-01-29T14:27:20.220Z,6.27
2023-01-29T14:29:46.586Z,6.26
2023-01-29T14:32:20.250Z,6.24
2023-01-29T14:34:47.532Z,6.22
2023-01-29T14:37:16.993Z,6.24
2023-01-29T14:39:44.639Z,6.22
2023-01-29T14:42:20.926Z,6.23
2023-01-29T14:44:48.565Z,6.24
2023-01-29T14:47:35.550Z,6.17
2023-01-29T14:50:03.637Z,6.21
2023-01-29T14:52:35.830Z,6.20
2023-01-29T14:55:04.068Z,6.17
2023-01-29T14:57:31.003Z,6.16
2023-01-29T14:59:57.441Z,6.01
2023-01-29T15:02:25.089Z,6.10
2023-01-29T15:04:54.079Z,6.13
2023-01-29T15:07:27.311Z,6.13
2023-01-29T15:10:13.528Z,6.13
2023-01-29T15:13:00.490Z,6.16
2023-01-29T15:15:27.588Z,6.10
2023-01-29T15:18:05.611Z,6.04
2023-01-29T15:20:33.383Z,6.05
2023-01-29T15:23:00.437Z,6.07
2023-01-29T15:25:29.022Z,6.13
2023-01-29T15:27:57.078Z,6.11
2023-01-29T15:30:27.156Z,6.20
2023-01-29T15:32:53.770Z,6.17
2023-01-29T15:35:36.893Z,6.13
2023-01-29T15:38:05.138Z,6.27
2023-01-29T15:40:31.726Z,6.24
2023-01-29T15:42:58.058Z,6.18
2023-01-29T15:45:27.381Z,6.21
2023-01-29T15:47:55.970Z,6.14
2023-01-29T15:50:22.939Z,6.19
2023-01-29T15:52:51.391Z,6.16
2023-01-29T15:55:19.699Z,6.13
2023-01-29T15:57:46.259Z,6.17
2023-01-29T16:00:23.599Z,6.14
2023-01-29T16:02:50.430Z,6.16
2023-01-29T16:05:18.917Z,6.06
2023-01-29T16:07:46.237Z,6.16
2023-01-29T16:10:17.745Z,6.19
2023-01-29T16:12:47.240Z,6.00
2023-01-29T16:15:19.349Z,6.14
2023-01-29T16:17:45.929Z,6.11
2023-01-29T16:20:20.726Z,6.16
2023-01-29T16:22:47.156Z,6.16
2023-01-29T16:25:15.189Z,6.16
2023-01-29T16:27:43.573Z,6.01
2023-01-29T16:30:13.632Z,6.03
2023-01-29T16:32:40.190Z,6.04
2023-01-29T16:35:07.081Z,6.00
2023-01-29T16:37:35.692Z,5.93
2023-01-29T16:40:12.465Z,5.98
2023-01-29T16:42:40.726Z,5.94
2023-01-29T16:45:26.938Z,5.97
2023-01-29T16:47:59.640Z,5.92
2023-01-29T16:50:35.918Z,5.91
2023-01-29T16:53:05.570Z,5.88
2023-01-29T16:55:42.696Z,5.86
2023-01-29T16:58:16.712Z,5.90
2023-01-29T17:00:47.625Z,5.94
2023-01-29T17:03:15.346Z,5.88
2023-01-29T17:05:41.839Z,5.87
2023-01-29T17:08:14.137Z,5.95
2023-01-29T17:10:47.165Z,6.27
2023-01-29T17:13:18.475Z,6.24
2023-01-29T17:15:46.072Z,6.13
2023-01-29T17:18:23.068Z,5.99
2023-01-29T17:20:49.865Z,5.88
2023-01-29T17:23:16.284Z,5.99
2023-01-29T17:25:42.855Z,5.92
2023-01-29T17:28:12.252Z,5.87
2023-01-29T17:30:44.698Z,5.80
2023-01-29T17:33:18.438Z,5.89
2023-01-29T17:35:45.488Z,5.94
2023-01-29T17:38:24.266Z,5.88
2023-01-29T17:41:04.259Z,5.87
2023-01-29T17:43:30.588Z,5.87
2023-01-29T17:45:57.072Z,5.76
2023-01-29T17:48:25.098Z,5.79
2023-01-29T17:50:53.484Z,5.74
2023-01-29T17:53:20.763Z,5.76
2023-01-29T17:55:47.367Z,5.68
2023-01-29T17:58:19.496Z,5.67
2023-01-29T18:00:46.449Z,5.70
2023-01-29T18:03:13.352Z,5.58
2023-01-29T18:05:42.806Z,5.66
2023-01-29T18:08:15.589Z,5.64
2023-01-29T18:10:42.035Z,5.68
2023-01-29T18:13:08.373Z,5.69
2023-01-29T18:15:34.713Z,5.75
2023-01-29T18:18:01.031Z,5.69
2023-01-29T18:20:27.701Z,5.73
2023-01-29T18:22:54.007Z,5.71
2023-01-29T18:25:20.667Z,5.70
2023-01-29T18:27:47.492Z,5.72
2023-01-29T18:30:14.262Z,5.70
2023-01-29T18:32:40.741Z,5.68
2023-01-29T18:35:08.031Z,5.63
2023-01-29T18:37:34.432Z,5.60
2023-01-29T18:40:00.746Z,5.61
2023-01-29T18:42:27.145Z,5.61
2023-01-29T18:44:53.561Z,5.61
2023-01-29T18:47:20.271Z,5.60
2023-01-29T18:49:46.656Z,5.61
2023-01-29T18:52:13.527Z,5.62
2023-01-29T18:54:39.926Z,5.63
2023-01-29T18:57:14.996Z,5.63
2023-01-29T18:59:52.799Z,5.66
2023-01-29T19:02:19.408Z,5.62
2023-01-29T19:04:46.118Z,5.65
2023-01-29T19:07:13.946Z,5.70
2023-01-29T19:09:40.524Z,5.65
2023-01-29T19:12:07.443Z,5.61
2023-01-29T19:14:33.961Z,5.63
2023-01-29T19:17:01.554Z,5.69
2023-01-29T19:19:28.264Z,5.73
2023-01-29T19:21:54.646Z,5.67
2023-01-29T19:24:21.920Z,5.63
2023-01-29T19:26:48.585Z,5.64
2023-01-29T19:29:15.067Z,5.69
2023-01-29T19:31:41.446Z,5.69
2023-01-29T19:34:09.148Z,5.64
2023-01-29T19:36:36.005Z,5.70
2023-01-29T19:39:02.394Z,5.74
2023-01-29T19:41:28.901Z,5.74
2023-01-29T19:43:55.242Z,5.79
2023-01-29T19:46:21.620Z,5.77
2023-01-29T19:48:48.254Z,5.78
2023-01-29T19:51:14.600Z,5.66
2023-01-29T19:53:44.843Z,5.74
2023-01-29T19:56:14.336Z,5.76
2023-01-29T19:58:40.851Z,5.76
2023-01-29T20:01:13.482Z,5.83
2023-01-29T20:03:41.925Z,5.89
2023-01-29T20:06:08.897Z,5.87
2023-01-29T20:08:35.578Z,5.88
2023-01-29T20:11:02.615Z,5.88
2023-01-29T20:13:29.566Z,5.87
2023-01-29T20:15:56.038Z,5.89
2023-01-29T20:18:22.700Z,5.95
2023-01-29T20:20:50.596Z,5.93
2023-01-29T20:23:28.009Z,5.90
2023-01-29T20:26:02.192Z,5.91
2023-01-29T20:28:28.545Z,5.94
2023-01-29T20:30:59.027Z,5.92
2023-01-29T20:33:25.738Z,5.98
2023-01-29T20:35:56.202Z,5.98
2023-01-29T20:38:22.845Z,5.99
2023-01-29T20:40:49.652Z,5.97
2023-01-29T20:43:15.993Z,5.96
2023-01-29T20:45:42.359Z,5.93
2023-01-29T20:48:08.807Z,6.00
2023-01-29T20:50:35.268Z,6.00
2023-01-29T20:53:01.643Z,5.99
2023-01-29T20:55:28.159Z,5.97
2023-01-29T20:58:05.177Z,6.01
2023-01-29T21:00:32.877Z,6.03
2023-01-29T21:02:59.327Z,6.09
2023-01-29T21:05:25.753Z,6.10
2023-01-29T21:07:52.174Z,6.06
2023-01-29T21:10:18.987Z,6.08
2023-01-29T21:12:45.621Z,6.08
2023-01-29T21:15:12.063Z,6.12
2023-01-29T21:17:38.416Z,6.16
2023-01-29T21:20:05.181Z,6.16
2023-01-29T21:22:31.914Z,6.10
2023-01-29T21:24:58.311Z,6.12
2023-01-29T21:27:25.553Z,6.17
2023-01-29T21:29:51.939Z,6.17
2023-01-29T21:32:18.764Z,6.22
2023-01-29T21:34:45.114Z,6.21
2023-01-29T21:37:11.472Z,6.22
2023-01-29T21:39:37.779Z,6.26
2023-01-29T21:42:22.806Z,6.34
2023-01-29T21:44:49.213Z,6.33
2023-01-29T21:47:15.672Z,6.25
2023-01-29T21:49:43.149Z,6.28
2023-01-29T21:52:11.285Z,6.27
2023-01-29T21:54:39.812Z,6.28
2023-01-29T21:57:08.500Z,6.36
2023-01-29T21:59:35.028Z,6.36
2023-01-29T22:02:01.593Z,6.29
2023-01-29T22:04:28.849Z,6.30
2023-01-29T22:06:55.614Z,6.30
2023-01-29T22:09:22.191Z,6.28
2023-01-29T22:11:48.751Z,6.27
2023-01-29T22:14:18.204Z,6.31
2023-01-29T22:16:45.235Z,6.26
2023-01-29T22:19:12.951Z,6.33
2023-01-29T22:21:39.608Z,6.32
2023-01-29T22:24:06.582Z,6.15
2023-01-29T22:26:33.406Z,6.29
2023-01-29T22:28:59.751Z,6.38
2023-01-29T22:31:26.231Z,6.36
2023-01-29T22:33:53.314Z,6.32
2023-01-29T22:36:19.959Z,6.28
2023-01-29T22:38:46.667Z,6.39
2023-01-29T22:41:15.885Z,6.38
2023-01-29T22:43:43.902Z,6.40
2023-01-29T22:46:10.959Z,6.45
2023-01-29T22:48:37.402Z,6.39
2023-01-29T22:51:10.637Z,6.48
2023-01-29T22:53:37.758Z,6.51
2023-01-29T22:56:04.711Z,6.54
2023-01-29T22:58:31.134Z,6.45
2023-01-29T23:00:57.527Z,6.55
2023-01-29T23:03:24.013Z,6.57
2023-01-29T23:05:50.663Z,6.54
2023-01-29T23:08:17.274Z,6.56
2023-01-29T23:10:43.629Z,6.57
2023-01-29T23:13:10.049Z,6.60
2023-01-29T23:15:36.381Z,6.64
2023-01-29T23:18:03.249Z,6.75
2023-01-29T23:20:29.786Z,6.77
2023-01-29T23:22:56.169Z,6.83
2023-01-29T23:25:22.509Z,6.84
2023-01-29T23:27:48.916Z,6.91
2023-01-29T23:30:15.746Z,6.92
2023-01-29T23:32:42.902Z,6.95
2023-01-29T23:35:09.343Z,7.04
2023-01-29T23:37:35.769Z,7.07
2023-01-29T23:40:02.579Z,7.09
2023-01-29T23:42:29.270Z,7.18
2023-01-29T23:44:55.604Z,7.24
2023-01-29T23:47:22.025Z,7.24
2023-01-29T23:49:48.348Z,7.33
2023-01-29T23:52:14.763Z,7.32
2023-01-29T23:54:41.228Z,7.36
2023-01-29T23:57:07.617Z,7.42
2023-01-29T23:59:34.053Z,7.43
